createdAt,value
2023-04-16T00:02:13.128Z,34.42
2023-04-16T00:04:40.130Z,34.65
2023-04-16T00:07:07.680Z,32.80
2023-04-16T00:09:34.454Z,30.65
2023-04-16T00:12:01.282Z,33.00
2023-04-16T00:14:30.093Z,30.75
2023-04-16T00:16:56.618Z,29.30
2023-04-16T00:19:23.725Z,33.20
2023-04-16T00:21:50.289Z,31.15
2023-04-16T00:24:17.153Z,35.88
2023-04-16T00:26:45.044Z,32.50
2023-04-16T00:29:12.185Z,32.72
2023-04-16T00:31:38.823Z,32.00
2023-04-16T00:34:05.760Z,27.77
2023-04-16T00:36:32.254Z,31.77
2023-04-16T00:38:59.156Z,33.92
2023-04-16T00:41:26.754Z,30.10
2023-04-16T00:43:57.711Z,34.70
2023-04-16T00:46:26.304Z,29.52
2023-04-16T00:48:54.666Z,32.40
2023-04-16T00:51:22.165Z,30.83
2023-04-16T00:53:49.059Z,32.83
2023-04-16T00:56:17.001Z,35.80
2023-04-16T00:58:44.507Z,32.85
2023-04-16T01:01:14.127Z,29.95
2023-04-16T01:03:45.937Z,32.13
2023-04-16T01:06:13.387Z,33.85
2023-04-16T01:08:40.610Z,31.52
2023-04-16T01:11:07.293Z,32.95
2023-04-16T01:13:39.083Z,38.60
2023-04-16T01:16:11.425Z,35.45
2023-04-16T01:18:38.876Z,33.60
2023-04-16T01:21:06.257Z,34.65
2023-04-16T01:23:33.371Z,35.15
2023-04-16T01:25:59.963Z,30.05
2023-04-16T01:28:27.723Z,33.75
2023-04-16T01:30:55.399Z,30.40
2023-04-16T01:33:54.805Z,30.83
2023-04-16T01:36:22.391Z,34.25
2023-04-16T01:38:49.850Z,30.63
2023-04-16T01:41:16.555Z,36.13
2023-04-16T01:43:43.140Z,32.08
2023-04-16T01:46:20.611Z,33.25
2023-04-16T01:48:48.296Z,30.80
2023-04-16T01:51:14.992Z,35.70
2023-04-16T01:53:41.618Z,32.90
2023-04-16T01:56:08.189Z,33.38
2023-04-16T01:58:36.321Z,33.55
2023-04-16T02:01:03.688Z,34.00
2023-04-16T02:03:31.292Z,37.20
2023-04-16T02:05:58.165Z,29.50
2023-04-16T02:08:26.080Z,32.85
2023-04-16T02:10:53.150Z,35.85
2023-04-16T02:13:19.901Z,35.33
2023-04-16T02:15:48.960Z,36.60
2023-04-16T02:18:19.834Z,30.77
2023-04-16T02:20:47.917Z,32.08
2023-04-16T02:23:15.804Z,35.08
2023-04-16T02:25:45.021Z,35.33
2023-04-16T02:28:15.535Z,36.13
2023-04-16T02:30:43.839Z,33.20
2023-04-16T02:33:12.659Z,33.63
2023-04-16T02:35:46.347Z,36.80
2023-04-16T02:38:12.905Z,33.08
2023-04-16T02:40:39.591Z,34.03
2023-04-16T02:43:06.610Z,34.15
2023-04-16T02:45:33.212Z,37.97
2023-04-16T02:48:00.758Z,38.15
2023-04-16T02:50:32.555Z,35.95
2023-04-16T02:52:59.286Z,35.83
2023-04-16T02:55:26.720Z,37.15
2023-04-16T02:57:54.462Z,37.20
2023-04-16T03:00:21.118Z,36.60
2023-04-16T03:02:47.867Z,32.35
2023-04-16T03:05:14.710Z,36.08
2023-04-16T03:07:41.341Z,34.70
2023-04-16T03:10:08.969Z,32.75
2023-04-16T03:12:36.787Z,34.72
2023-04-16T03:15:07.095Z,36.38
2023-04-16T03:17:33.924Z,36.55
2023-04-16T03:20:00.865Z,36.00
2023-04-16T03:22:27.375Z,35.42
2023-04-16T03:24:53.937Z,32.38
2023-04-16T03:27:20.476Z,33.72
2023-04-16T03:29:50.216Z,34.00
2023-04-16T03:32:17.351Z,34.58
2023-04-16T03:34:44.296Z,36.17
2023-04-16T03:37:12.038Z,35.17
2023-04-16T03:39:38.886Z,36.40
2023-04-16T03:42:05.496Z,32.95
2023-04-16T03:44:33.481Z,35.05
2023-04-16T03:47:01.300Z,36.78
2023-04-16T03:49:27.993Z,34.13
2023-04-16T03:51:55.689Z,34.60
2023-04-16T03:54:22.994Z,34.33
2023-04-16T03:56:57.017Z,31.70
2023-04-16T03:59:25.256Z,32.40
2023-04-16T04:01:52.023Z,36.13
2023-04-16T04:04:18.745Z,33.70
2023-04-16T04:06:46.541Z,34.13
2023-04-16T04:09:16.279Z,36.42
2023-04-16T04:11:44.296Z,33.47
2023-04-16T04:14:10.978Z,31.90
2023-04-16T04:16:37.637Z,33.78
2023-04-16T04:19:04.290Z,31.95
2023-04-16T04:21:31.639Z,33.85
2023-04-16T04:23:58.328Z,38.90
2023-04-16T04:26:25.007Z,32.53
2023-04-16T04:28:51.619Z,36.42
2023-04-16T04:31:18.910Z,34.05
2023-04-16T04:33:45.813Z,31.50
2023-04-16T04:36:12.423Z,30.42
2023-04-16T04:38:39.121Z,32.95
2023-04-16T04:41:05.655Z,31.83
2023-04-16T04:43:35.633Z,32.58
2023-04-16T04:46:02.838Z,29.98
2023-04-16T04:48:34.766Z,28.38
2023-04-16T04:51:03.476Z,32.33
2023-04-16T04:53:31.388Z,29.33
2023-04-16T04:56:05.488Z,31.25
2023-04-16T04:58:42.665Z,33.15
2023-04-16T05:01:09.366Z,30.05
2023-04-16T05:03:36.264Z,34.70
2023-04-16T05:06:03.229Z,30.05
2023-04-16T05:08:29.752Z,30.92
2023-04-16T05:10:57.101Z,31.45
2023-04-16T05:13:24.043Z,30.33
2023-04-16T05:15:50.591Z,30.20
2023-04-16T05:18:17.056Z,32.35
2023-04-16T05:20:43.930Z,30.05
2023-04-16T05:23:10.458Z,31.35
2023-04-16T05:25:37.007Z,33.75
2023-04-16T05:28:03.684Z,30.48
2023-04-16T05:30:30.635Z,28.05
2023-04-16T05:32:57.818Z,26.65
2023-04-16T05:35:24.395Z,30.95
2023-04-16T05:37:51.164Z,29.10
2023-04-16T05:40:18.121Z,31.75
2023-04-16T05:42:44.632Z,29.10
2023-04-16T05:45:11.439Z,29.95
2023-04-16T05:47:38.334Z,30.88
2023-04-16T05:50:05.495Z,28.02
2023-04-16T05:52:32.333Z,27.98
2023-04-16T05:55:01.880Z,26.50
2023-04-16T05:57:29.254Z,30.85
2023-04-16T05:59:55.791Z,28.90
2023-04-16T06:02:22.664Z,24.15
2023-04-16T06:04:49.874Z,27.17
2023-04-16T06:07:16.576Z,24.30
2023-04-16T06:09:43.182Z,28.15
2023-04-16T06:12:09.782Z,26.55
2023-04-16T06:14:36.294Z,23.70
2023-04-16T06:17:03.879Z,25.63
2023-04-16T06:19:30.492Z,23.98
2023-04-16T06:21:57.936Z,24.30
2023-04-16T06:24:24.548Z,24.83
2023-04-16T06:26:51.354Z,21.98
2023-04-16T06:29:18.090Z,24.15
2023-04-16T06:31:44.822Z,26.98
2023-04-16T06:34:11.513Z,28.90
2023-04-16T06:36:38.239Z,29.90
2023-04-16T06:39:05.127Z,27.48
2023-04-16T06:41:31.978Z,26.10
2023-04-16T06:43:58.546Z,25.98
2023-04-16T06:46:25.244Z,23.75
2023-04-16T06:48:52.010Z,24.50
2023-04-16T06:51:19.126Z,26.58
2023-04-16T06:53:45.769Z,27.63
2023-04-16T06:56:12.341Z,24.50
2023-04-16T06:58:39.252Z,27.05
2023-04-16T07:01:05.985Z,24.05
2023-04-16T07:03:33.756Z,24.88
2023-04-16T07:06:01.750Z,23.65
2023-04-16T07:08:28.519Z,27.50
2023-04-16T07:10:55.417Z,24.02
2023-04-16T07:13:22.125Z,25.70
2023-04-16T07:15:48.909Z,23.65
2023-04-16T07:18:16.542Z,24.58
2023-04-16T07:20:43.377Z,26.50
2023-04-16T07:23:10.533Z,22.60
2023-04-16T07:25:37.832Z,28.45
2023-04-16T07:28:04.692Z,23.73
2023-04-16T07:30:34.223Z,27.63
2023-04-16T07:33:02.955Z,30.58
2023-04-16T07:35:30.716Z,25.33
2023-04-16T07:37:57.709Z,23.67
2023-04-16T07:40:24.726Z,24.13
2023-04-16T07:42:51.507Z,23.50
2023-04-16T07:45:18.885Z,26.52
2023-04-16T07:47:46.025Z,22.98
2023-04-16T07:50:12.953Z,23.05
2023-04-16T07:52:41.586Z,23.35
2023-04-16T07:55:09.270Z,21.25
2023-04-16T07:57:36.095Z,23.23
2023-04-16T08:00:05.192Z,25.13
2023-04-16T08:02:39.799Z,18.70
2023-04-16T08:05:07.929Z,21.40
2023-04-16T08:07:34.932Z,22.17
2023-04-16T08:10:02.448Z,22.83
2023-04-16T08:12:32.147Z,22.40
2023-04-16T08:14:59.169Z,18.83
2023-04-16T08:17:26.397Z,24.73
2023-04-16T08:19:53.231Z,20.27
2023-04-16T08:22:20.867Z,22.30
2023-04-16T08:24:48.335Z,20.88
2023-04-16T08:27:19.923Z,19.98
2023-04-16T08:29:48.148Z,21.38
2023-04-16T08:32:15.220Z,23.85
2023-04-16T08:34:42.614Z,19.85
2023-04-16T08:37:09.828Z,23.63
2023-04-16T08:39:36.733Z,25.95
2023-04-16T08:42:06.066Z,23.10
2023-04-16T08:44:37.375Z,25.95
2023-04-16T08:47:09.361Z,24.33
2023-04-16T08:49:43.132Z,23.40
2023-04-16T08:52:20.136Z,24.40
2023-04-16T08:55:01.438Z,23.25
2023-04-16T08:57:44.587Z,22.23
2023-04-16T09:00:11.976Z,27.40
2023-04-16T09:02:39.389Z,23.90
2023-04-16T09:05:16.999Z,24.50
2023-04-16T09:07:48.322Z,25.75
2023-04-16T09:10:20.327Z,23.80
2023-04-16T09:12:49.710Z,25.10
2023-04-16T09:15:16.339Z,25.17
2023-04-16T09:17:42.991Z,25.98
2023-04-16T09:20:10.885Z,26.70
2023-04-16T09:22:37.839Z,26.98
2023-04-16T09:25:04.861Z,22.58
2023-04-16T09:27:31.998Z,26.10
2023-04-16T09:29:58.983Z,26.25
2023-04-16T09:32:27.740Z,21.15
2023-04-16T09:34:58.699Z,26.27
2023-04-16T09:37:29.634Z,25.40
2023-04-16T09:40:02.158Z,28.05
2023-04-16T09:42:31.765Z,26.67
2023-04-16T09:45:01.392Z,27.77
2023-04-16T09:47:45.359Z,28.23
2023-04-16T09:50:18.464Z,26.55
2023-04-16T09:52:49.504Z,30.38
2023-04-16T09:55:16.221Z,27.95
2023-04-16T09:57:42.824Z,29.70
2023-04-16T10:00:10.782Z,29.45
2023-04-16T10:02:41.931Z,27.25
2023-04-16T10:05:09.153Z,27.10
2023-04-16T10:07:37.540Z,30.33
2023-04-16T10:10:04.854Z,28.50
2023-04-16T10:12:32.975Z,29.63
2023-04-16T10:15:00.009Z,27.52
2023-04-16T10:17:30.030Z,30.65
2023-04-16T10:19:58.402Z,28.27
2023-04-16T10:22:26.328Z,26.58
2023-04-16T10:24:53.793Z,27.73
2023-04-16T10:27:20.672Z,29.95
2023-04-16T10:29:48.928Z,31.05
2023-04-16T10:32:18.405Z,32.55
2023-04-16T10:34:47.762Z,27.08
2023-04-16T10:37:17.956Z,26.65
2023-04-16T10:39:45.208Z,26.52
2023-04-16T10:42:13.123Z,29.13
2023-04-16T10:44:44.302Z,27.13
2023-04-16T10:47:13.619Z,30.58
2023-04-16T10:49:41.538Z,26.13
2023-04-16T10:52:13.673Z,27.60
2023-04-16T10:54:41.620Z,25.15
2023-04-16T10:57:16.077Z,27.17
2023-04-16T10:59:44.011Z,27.58
2023-04-16T11:02:17.407Z,29.27
2023-04-16T11:04:48.980Z,29.35
2023-04-16T11:07:18.940Z,27.33
2023-04-16T11:09:50.981Z,28.15
2023-04-16T11:12:35.846Z,28.95
2023-04-16T11:15:08.944Z,33.00
2023-04-16T11:17:43.964Z,24.10
2023-04-16T11:20:21.515Z,29.27
2023-04-16T11:22:54.951Z,27.10
2023-04-16T11:25:29.725Z,29.80
2023-04-16T11:27:59.094Z,23.52
2023-04-16T11:30:34.608Z,25.73
2023-04-16T11:33:09.431Z,29.70
2023-04-16T11:35:36.065Z,28.88
2023-04-16T11:38:02.822Z,27.20
2023-04-16T11:40:31.701Z,32.78
2023-04-16T11:43:03.897Z,32.08
2023-04-16T11:45:31.394Z,30.27
2023-04-16T11:47:58.524Z,27.08
2023-04-16T11:50:27.473Z,27.90
2023-04-16T11:53:03.685Z,29.52
2023-04-16T11:55:31.037Z,28.42
2023-04-16T11:57:57.823Z,29.17
2023-04-16T12:00:25.084Z,28.85
2023-04-16T12:02:53.986Z,27.25
2023-04-16T12:05:38.926Z,26.95
2023-04-16T12:08:11.503Z,26.75
2023-04-16T12:10:54.042Z,28.17
2023-04-16T12:13:20.844Z,26.00
2023-04-16T12:15:49.662Z,24.63
2023-04-16T12:18:17.549Z,25.67
2023-04-16T12:20:45.261Z,25.75
2023-04-16T12:23:25.193Z,29.77
2023-04-16T12:25:52.668Z,24.88
2023-04-16T12:28:34.915Z,21.77
2023-04-16T12:31:03.275Z,23.60
2023-04-16T12:33:30.199Z,22.48
2023-04-16T12:35:57.363Z,21.63
2023-04-16T12:38:25.446Z,21.20
2023-04-16T12:40:52.708Z,20.38
2023-04-16T12:43:21.372Z,22.67
2023-04-16T12:45:48.589Z,23.10
2023-04-16T12:48:15.512Z,23.10
2023-04-16T12:50:44.111Z,19.30
2023-04-16T12:53:11.775Z,18.17
2023-04-16T12:55:38.469Z,17.88
2023-04-16T12:58:05.368Z,18.58
2023-04-16T13:00:32.679Z,17.50
2023-04-16T13:02:59.818Z,16.50
2023-04-16T13:05:27.079Z,21.48
2023-04-16T13:07:54.052Z,16.98
2023-04-16T13:10:23.362Z,17.13
2023-04-16T13:12:50.320Z,20.48
2023-04-16T13:15:17.231Z,16.77
2023-04-16T13:17:43.889Z,19.38
2023-04-16T13:20:11.323Z,17.23
2023-04-16T13:22:42.624Z,16.45
2023-04-16T13:25:09.925Z,17.23
2023-04-16T13:27:37.020Z,14.93
2023-04-16T13:30:04.691Z,14.93
2023-04-16T13:32:31.756Z,16.52
2023-04-16T13:35:01.892Z,14.40
2023-04-16T13:37:28.733Z,16.33
2023-04-16T13:39:56.545Z,13.73
2023-04-16T13:42:23.790Z,13.75
2023-04-16T13:44:53.005Z,13.65
2023-04-16T13:47:19.760Z,13.15
2023-04-16T13:49:50.445Z,15.38
2023-04-16T13:52:20.122Z,14.20
2023-04-16T13:54:46.909Z,12.85
2023-04-16T13:57:21.996Z,14.45
2023-04-16T13:59:48.820Z,13.25
2023-04-16T14:02:15.722Z,15.88
2023-04-16T14:04:42.562Z,14.88
2023-04-16T14:07:09.460Z,13.77
2023-04-16T14:09:36.483Z,17.63
2023-04-16T14:12:03.712Z,16.85
2023-04-16T14:14:30.802Z,16.27
2023-04-16T14:17:01.588Z,15.35
2023-04-16T14:19:28.671Z,15.50
2023-04-16T14:21:55.541Z,16.70
2023-04-16T14:24:22.352Z,17.52
2023-04-16T14:26:49.020Z,16.38
2023-04-16T14:29:17.113Z,14.07
2023-04-16T14:31:43.817Z,16.38
2023-04-16T14:34:11.269Z,18.05
2023-04-16T14:36:39.475Z,17.23
2023-04-16T14:39:07.451Z,14.80
2023-04-16T14:41:35.160Z,15.52
2023-04-16T14:44:04.099Z,14.98
2023-04-16T14:46:33.536Z,18.70
2023-04-16T14:49:01.182Z,13.80
2023-04-16T14:51:29.288Z,13.43
2023-04-16T14:53:56.377Z,14.88
2023-04-16T14:56:23.317Z,11.55
2023-04-16T14:58:50.272Z,13.65
2023-04-16T15:01:17.630Z,13.25
2023-04-16T15:03:44.808Z,12.13
2023-04-16T15:06:13.832Z,11.60
2023-04-16T15:08:41.381Z,11.95
2023-04-16T15:11:08.145Z,9.50
2023-04-16T15:13:35.448Z,10.07
2023-04-16T15:16:07.547Z,10.65
2023-04-16T15:18:36.669Z,8.40
2023-04-16T15:21:04.498Z,9.05
2023-04-16T15:23:33.535Z,7.25
2023-04-16T15:26:00.193Z,8.45
2023-04-16T15:28:27.083Z,6.95
2023-04-16T15:30:54.096Z,7.70
2023-04-16T15:33:21.897Z,8.98
2023-04-16T15:35:51.738Z,7.43
2023-04-16T15:38:21.242Z,8.55
2023-04-16T15:40:48.162Z,10.70
2023-04-16T15:43:16.125Z,9.07
2023-04-16T15:45:44.010Z,10.27
2023-04-16T15:48:11.037Z,7.50
2023-04-16T15:50:38.147Z,8.95
2023-04-16T15:53:05.350Z,8.13
2023-04-16T15:55:32.190Z,10.35
2023-04-16T15:57:58.995Z,9.02
2023-04-16T16:00:26.220Z,9.43
2023-04-16T16:02:53.086Z,9.35
2023-04-16T16:05:19.850Z,8.98
2023-04-16T16:07:46.820Z,9.90
2023-04-16T16:10:13.749Z,11.40
2023-04-16T16:12:43.373Z,11.07
2023-04-16T16:15:11.512Z,10.60
2023-04-16T16:17:39.109Z,10.20
2023-04-16T16:20:09.498Z,9.38
2023-04-16T16:22:38.196Z,9.50
2023-04-16T16:25:05.740Z,8.27
2023-04-16T16:27:37.953Z,6.75
2023-04-16T16:30:07.172Z,6.40
2023-04-16T16:32:40.950Z,7.72
2023-04-16T16:35:08.976Z,6.28
2023-04-16T16:37:38.251Z,6.82
2023-04-16T16:40:05.765Z,7.22
2023-04-16T16:42:32.518Z,7.93
2023-04-16T16:45:05.171Z,7.45
2023-04-16T16:47:33.251Z,8.20
2023-04-16T16:50:03.010Z,9.68
2023-04-16T16:52:30.548Z,6.95
2023-04-16T16:54:58.105Z,8.05
2023-04-16T16:57:27.025Z,8.13
2023-04-16T16:59:54.869Z,8.75
2023-04-16T17:02:23.360Z,8.13
2023-04-16T17:04:51.803Z,7.80
2023-04-16T17:07:19.105Z,10.18
2023-04-16T17:09:46.265Z,9.00
2023-04-16T17:12:13.146Z,9.63
2023-04-16T17:14:39.980Z,9.55
2023-04-16T17:17:06.918Z,10.05
2023-04-16T17:19:34.126Z,12.45
2023-04-16T17:22:01.292Z,8.95
2023-04-16T17:24:28.940Z,10.35
2023-04-16T17:26:55.817Z,9.27
2023-04-16T17:29:26.165Z,11.52
2023-04-16T17:31:53.726Z,9.77
2023-04-16T17:34:21.925Z,10.32
2023-04-16T17:36:50.740Z,12.18
2023-04-16T17:39:17.854Z,10.18
2023-04-16T17:41:45.045Z,10.45
2023-04-16T17:44:12.931Z,11.88
2023-04-16T17:46:41.097Z,9.27
2023-04-16T17:49:09.111Z,10.18
2023-04-16T17:51:36.994Z,10.57
2023-04-16T17:54:07.144Z,11.60
2023-04-16T17:56:35.566Z,10.20
2023-04-16T17:59:03.081Z,12.13
2023-04-16T18:01:30.018Z,10.50
2023-04-16T18:03:56.814Z,10.73
2023-04-16T18:06:23.704Z,11.60
2023-04-16T18:08:50.576Z,16.85
2023-04-16T18:11:17.404Z,12.55
2023-04-16T18:13:44.399Z,11.75
2023-04-16T18:16:17.601Z,12.55
2023-04-16T18:18:47.191Z,10.80
2023-04-16T18:21:13.940Z,11.13
2023-04-16T18:23:41.190Z,13.77
2023-04-16T18:26:09.445Z,13.60
2023-04-16T18:28:39.266Z,12.07
2023-04-16T18:31:07.807Z,9.73
2023-04-16T18:33:54.107Z,13.05
2023-04-16T18:36:22.715Z,14.07
2023-04-16T18:39:00.860Z,12.38
2023-04-16T18:41:38.174Z,10.07
2023-04-16T18:44:06.548Z,10.90
2023-04-16T18:46:33.629Z,12.27
2023-04-16T18:49:00.598Z,11.50
2023-04-16T18:51:27.632Z,12.68
2023-04-16T18:53:55.335Z,11.82
2023-04-16T18:56:22.165Z,13.40
2023-04-16T18:58:49.480Z,14.00
2023-04-16T19:01:16.857Z,12.75
2023-04-16T19:03:45.525Z,12.00
2023-04-16T19:06:13.919Z,13.70
2023-04-16T19:08:40.881Z,11.85
2023-04-16T19:11:07.829Z,13.35
2023-04-16T19:13:34.509Z,11.38
2023-04-16T19:16:05.926Z,12.00
2023-04-16T19:18:32.672Z,12.20
2023-04-16T19:21:00.874Z,14.38
2023-04-16T19:23:28.859Z,14.00
2023-04-16T19:25:56.667Z,13.15
2023-04-16T19:28:23.960Z,15.82
2023-04-16T19:30:51.375Z,13.13
2023-04-16T19:33:18.770Z,12.35
2023-04-16T19:35:47.233Z,11.98
2023-04-16T19:38:14.398Z,12.05
2023-04-16T19:40:44.333Z,14.02
2023-04-16T19:43:11.090Z,15.45
2023-04-16T19:45:43.175Z,14.98
2023-04-16T19:48:10.078Z,11.52
2023-04-16T19:50:41.187Z,12.50
2023-04-16T19:53:09.042Z,13.70
2023-04-16T19:55:35.825Z,12.02
2023-04-16T19:58:06.199Z,13.38
2023-04-16T20:00:34.149Z,15.82
2023-04-16T20:03:00.728Z,11.73
2023-04-16T20:05:27.509Z,13.55
2023-04-16T20:07:54.432Z,15.52
2023-04-16T20:10:21.372Z,14.48
2023-04-16T20:12:49.053Z,14.95
2023-04-16T20:15:17.086Z,15.13
2023-04-16T20:17:44.062Z,13.27
2023-04-16T20:20:11.225Z,13.32
2023-04-16T20:22:39.492Z,15.35
2023-04-16T20:25:07.453Z,13.48
2023-04-16T20:27:34.588Z,14.48
2023-04-16T20:30:02.221Z,15.27
2023-04-16T20:32:29.464Z,13.52
2023-04-16T20:34:56.329Z,14.00
2023-04-16T20:37:22.951Z,15.27
2023-04-16T20:39:54.119Z,16.48
2023-04-16T20:42:22.597Z,14.90
2023-04-16T20:44:56.154Z,16.17
2023-04-16T20:49:49.851Z,14.93
2023-04-16T20:52:16.760Z,14.18
2023-04-16T20:54:43.882Z,18.42
2023-04-16T20:57:10.876Z,16.50
2023-04-16T20:59:37.728Z,15.20
2023-04-16T21:02:04.663Z,19.50
2023-04-16T21:04:31.571Z,21.30
2023-04-16T21:06:58.272Z,20.15
2023-04-16T21:09:24.938Z,16.92
2023-04-16T21:11:51.490Z,15.20
2023-04-16T21:14:19.115Z,13.90
2023-04-16T21:16:45.845Z,15.00
2023-04-16T21:19:13.649Z,15.32
2023-04-16T21:21:45.420Z,14.27
2023-04-16T21:24:12.526Z,17.75
2023-04-16T21:26:40.186Z,14.30
2023-04-16T21:29:08.534Z,16.98
2023-04-16T21:31:35.379Z,17.48
2023-04-16T21:34:03.232Z,17.95
2023-04-16T21:36:35.006Z,14.65
2023-04-16T21:39:07.143Z,15.05
2023-04-16T21:41:38.267Z,16.23
2023-04-16T21:44:06.155Z,15.68
2023-04-16T21:46:32.924Z,20.55
2023-04-16T21:48:59.755Z,15.85
2023-04-16T21:51:29.708Z,16.50
2023-04-16T21:53:56.574Z,16.08
2023-04-16T21:56:27.013Z,15.57
2023-04-16T21:58:53.642Z,18.92
2023-04-16T22:01:22.263Z,14.93
2023-04-16T22:03:51.791Z,14.52
2023-04-16T22:06:20.280Z,16.42
2023-04-16T22:08:47.072Z,17.75
2023-04-16T22:11:13.737Z,19.63
2023-04-16T22:13:42.264Z,16.35
2023-04-16T22:16:11.537Z,17.23
2023-04-16T22:18:38.680Z,16.65
2023-04-16T22:21:05.347Z,18.02
2023-04-16T22:23:32.047Z,16.73
2023-04-16T22:25:58.701Z,17.05
2023-04-16T22:28:25.280Z,16.48
2023-04-16T22:30:51.943Z,16.73
2023-04-16T22:33:20.247Z,17.55
2023-04-16T22:35:46.888Z,16.50
2023-04-16T22:38:13.507Z,18.85
2023-04-16T22:40:40.373Z,16.77
2023-04-16T22:43:06.956Z,17.30
2023-04-16T22:45:40.965Z,16.23
2023-04-16T22:48:07.759Z,16.10
2023-04-16T22:50:34.417Z,17.67
2023-04-16T22:53:00.986Z,17.23
2023-04-16T22:55:27.598Z,20.45
2023-04-16T22:57:54.204Z,16.52
2023-04-16T23:00:21.110Z,16.88
2023-04-16T23:02:47.875Z,16.80
2023-04-16T23:05:14.572Z,15.20
2023-04-16T23:07:41.244Z,16.55
2023-04-16T23:10:08.548Z,16.88
2023-04-16T23:12:37.313Z,17.98
2023-04-16T23:15:06.628Z,16.98
2023-04-16T23:17:35.006Z,17.23
2023-04-16T23:20:02.083Z,15.57
2023-04-16T23:22:28.744Z,19.85
2023-04-16T23:24:55.557Z,21.00
2023-04-16T23:27:22.151Z,18.08
2023-04-16T23:29:48.785Z,18.60
2023-04-16T23:32:15.359Z,18.42
2023-04-16T23:34:42.144Z,15.93
2023-04-16T23:37:09.975Z,16.67
2023-04-16T23:39:36.664Z,18.77
2023-04-16T23:42:03.604Z,19.33
2023-04-16T23:44:30.545Z,21.50
2023-04-16T23:46:57.257Z,17.90
2023-04-16T23:49:24.070Z,17.27
2023-04-16T23:51:54.103Z,17.58
2023-04-16T23:54:21.312Z,17.95
2023-04-16T23:56:48.021Z,17.17
2023-04-16T23:59:16.856Z,17.05
